Time;durP1;ratioP1;P1;durP2;ratioP2;P2;SDS_P1;SDS_P2;PMS_P1;PMS_P2;Temp;Humidity;BMP_temperature;BMP_pressure;BME280_temperature;BME280_humidity;BME280_pressure;Samples;Min_cycle;Max_cycle;Signal;HPM_P1;HPM_P2
2022/09/13 00:00:35;;;;;;;3.90;2.90;;;12.90;99.90;;;;;;5222005;28;20038;-74
2022/09/13 00:03:08;;;;;;;4.10;3.10;;;12.80;99.90;;;;;;5240754;28;20032;-74
2022/09/13 00:05:42;;;;;;;3.50;3.20;;;12.70;99.90;;;;;;5214223;28;20061;-74
2022/09/13 00:08:17;;;;;;;3.50;3.20;;;12.60;99.90;;;;;;5219661;28;20312;-74
2022/09/13 00:10:49;;;;;;;3.88;3.17;;;12.60;99.90;;;;;;5202191;28;20033;-74
2022/09/13 00:13:21;;;;;;;3.50;2.97;;;12.50;99.90;;;;;;5226936;28;20051;-74
2022/09/13 00:15:55;;;;;;;3.60;2.97;;;12.40;99.90;;;;;;5241220;28;20039;-74
2022/09/13 00:18:28;;;;;;;3.25;2.95;;;12.30;99.90;;;;;;5240783;28;20036;-72
2022/09/13 00:21:13;;;;;;;4.18;3.00;;;12.20;99.90;;;;;;5240824;28;20044;-73
2022/09/13 00:23:52;;;;;;;3.55;3.13;;;12.10;99.90;;;;;;5187818;28;20041;-72
2022/09/13 00:26:31;;;;;;;3.35;3.05;;;12.10;99.90;;;;;;5201168;28;20037;-72
2022/09/13 00:29:03;;;;;;;4.18;3.38;;;12.10;99.90;;;;;;5198165;28;20335;-73
2022/09/13 00:31:35;;;;;;;3.30;3.00;;;12.00;99.90;;;;;;5199350;28;20044;-73
2022/09/13 00:34:11;;;;;;;4.03;3.17;;;12.10;99.90;;;;;;5216050;28;20407;-72
2022/09/13 00:36:43;;;;;;;3.92;3.35;;;12.00;99.90;;;;;;5220043;28;20045;-73
2022/09/13 00:39:20;;;;;;;3.65;3.35;;;11.90;99.90;;;;;;5219312;28;20581;-73
2022/09/13 00:41:54;;;;;;;3.40;2.97;;;11.80;99.90;;;;;;5221706;28;20021;-74
2022/09/13 00:44:59;;;;;;;3.30;3.00;;;11.70;99.90;;;;;;5219931;28;20045;-73
2022/09/13 00:47:41;;;;;;;3.80;3.08;;;11.50;99.90;;;;;;5221680;28;20033;-73
2022/09/13 00:50:21;;;;;;;5.15;3.60;;;11.50;99.90;;;;;;5220210;28;20040;-72
2022/09/13 00:53:21;;;;;;;3.80;2.97;;;11.40;99.90;;;;;;5221445;28;20485;-73
2022/09/13 00:56:10;;;;;;;5.63;3.55;;;11.50;99.90;;;;;;5186337;28;20372;-74
2022/09/13 00:59:07;;;;;;;4.05;3.17;;;11.50;99.90;;;;;;5221799;28;20043;-74
2022/09/13 01:01:50;;;;;;;4.18;3.50;;;11.40;99.90;;;;;;5217910;28;20128;-74
2022/09/13 01:04:25;;;;;;;4.07;3.40;;;11.30;99.90;;;;;;5207406;28;20025;-72
2022/09/13 01:07:03;;;;;;;4.60;3.83;;;11.30;99.90;;;;;;5217426;28;20040;-74
2022/09/13 01:09:44;;;;;;;4.88;3.42;;;11.20;99.90;;;;;;5227570;28;20062;-72
2022/09/13 01:12:34;;;;;;;4.13;3.47;;;11.20;99.90;;;;;;5218335;28;20522;-72
2022/09/13 01:15:07;;;;;;;4.45;3.33;;;11.10;99.90;;;;;;5216166;28;20051;-72
2022/09/13 01:17:42;;;;;;;4.97;3.63;;;11.10;99.90;;;;;;5238600;28;20076;-74
2022/09/13 01:20:19;;;;;;;3.78;3.40;;;11.10;99.90;;;;;;5239050;28;20280;-73
2022/09/13 01:23:43;;;;;;;5.68;3.22;;;11.20;99.90;;;;;;5221700;28;20323;-74
2022/09/13 01:26:52;;;;;;;5.28;2.92;;;11.20;99.90;;;;;;5234831;28;20040;-74
2022/09/13 01:30:01;;;;;;;3.13;2.83;;;11.10;99.90;;;;;;5218773;28;20062;-74
2022/09/13 01:33:03;;;;;;;3.88;3.08;;;11.00;99.90;;;;;;5238437;28;20039;-74
2022/09/13 01:36:31;;;;;;;3.15;2.30;;;11.00;99.90;;;;;;5215624;28;20047;-74
2022/09/13 01:39:20;;;;;;;3.90;3.42;;;11.00;99.90;;;;;;5236211;28;20035;-74
2022/09/13 01:42:20;;;;;;;3.78;3.17;;;10.90;99.90;;;;;;5186627;28;20082;-74
2022/09/13 01:45:33;;;;;;;4.53;2.83;;;10.80;99.90;;;;;;5204794;28;20028;-74
2022/09/13 01:48:42;;;;;;;3.85;3.15;;;10.70;99.90;;;;;;5203937;28;20032;-74
2022/09/13 01:52:02;;;;;;;3.78;3.10;;;10.70;99.90;;;;;;5219800;28;20079;-73
2022/09/13 01:54:49;;;;;;;5.20;3.67;;;10.70;99.90;;;;;;5149986;28;20075;-74
2022/09/13 01:57:39;;;;;;;3.30;2.72;;;10.70;99.90;;;;;;5121374;28;20465;-73
2022/09/13 02:00:17;;;;;;;4.55;3.63;;;10.60;99.90;;;;;;5138376;28;20157;-73
2022/09/13 02:03:28;;;;;;;3.65;3.30;;;10.60;99.90;;;;;;5143462;28;20060;-74
2022/09/13 02:06:29;;;;;;;4.55;3.25;;;10.50;99.90;;;;;;5117871;28;20065;-73
2022/09/13 02:09:08;;;;;;;3.88;3.30;;;10.50;99.90;;;;;;5145419;28;20071;-73
2022/09/13 02:11:44;;;;;;;5.15;3.83;;;10.50;99.90;;;;;;5138408;28;20038;-73
2022/09/13 02:14:30;;;;;;;4.68;3.70;;;10.50;99.90;;;;;;5138150;28;20499;-73
2022/09/13 02:17:11;;;;;;;3.90;3.45;;;10.50;99.90;;;;;;5117271;28;20038;-74
2022/09/13 02:20:05;;;;;;;5.28;3.53;;;10.40;99.90;;;;;;5151282;28;20054;-73
2022/09/13 02:22:48;;;;;;;4.32;3.65;;;10.30;99.90;;;;;;5105689;28;20139;-74
2022/09/13 02:25:30;;;;;;;4.03;3.58;;;10.30;99.90;;;;;;5137113;28;20051;-73
2022/09/13 02:28:08;;;;;;;7.93;3.45;;;10.30;99.90;;;;;;5136663;28;20501;-74
2022/09/13 02:30:52;;;;;;;7.57;3.75;;;10.30;99.90;;;;;;5199173;28;20459;-74
2022/09/13 02:33:36;;;;;;;4.65;3.35;;;10.30;99.90;;;;;;5218610;28;20036;-74
2022/09/13 02:36:16;;;;;;;4.45;3.92;;;10.20;99.90;;;;;;5224339;28;20034;-74
2022/09/13 02:38:56;;;;;;;6.60;3.83;;;10.20;99.90;;;;;;5238347;28;20369;-74
2022/09/13 02:42:10;;;;;;;5.68;3.50;;;10.20;99.90;;;;;;5231803;28;20406;-73
2022/09/13 02:45:05;;;;;;;5.88;3.95;;;10.30;99.90;;;;;;5219249;28;20036;-74
2022/09/13 02:48:06;;;;;;;5.78;4.13;;;10.30;99.90;;;;;;5220311;28;20045;-74
2022/09/13 02:51:01;;;;;;;5.35;4.18;;;10.30;99.90;;;;;;5221210;28;20036;-74
2022/09/13 02:53:49;;;;;;;4.85;3.90;;;10.30;99.90;;;;;;5215244;28;20150;-74
2022/09/13 02:56:25;;;;;;;6.07;4.05;;;10.30;99.90;;;;;;5232385;28;20035;-74
2022/09/13 02:59:08;;;;;;;4.55;3.90;;;10.30;99.90;;;;;;5237636;28;20040;-74
2022/09/13 03:01:44;;;;;;;5.60;4.35;;;10.30;99.90;;;;;;5239162;28;20338;-74
2022/09/13 03:04:16;;;;;;;5.65;4.70;;;10.20;99.90;;;;;;5194195;28;20059;-73
2022/09/13 03:07:03;;;;;;;4.80;3.83;;;10.20;99.90;;;;;;5237492;28;20556;-73
2022/09/13 03:09:35;;;;;;;5.75;3.60;;;10.30;99.90;;;;;;5235168;28;20070;-73
2022/09/13 03:12:49;;;;;;;6.28;3.97;;;10.20;99.90;;;;;;5238705;28;20548;-74
2022/09/13 03:15:55;;;;;;;6.75;4.38;;;10.20;99.90;;;;;;5218662;28;20080;-73
2022/09/13 03:18:48;;;;;;;5.32;4.25;;;10.20;99.90;;;;;;5237134;28;20052;-73
2022/09/13 03:21:37;;;;;;;5.75;4.05;;;10.30;99.90;;;;;;5238469;28;20420;-74
2022/09/13 03:24:26;;;;;;;3.97;3.50;;;10.30;99.90;;;;;;5237672;28;20050;-74
2022/09/13 03:27:32;;;;;;;5.00;4.00;;;10.30;99.90;;;;;;5219570;28;20028;-74
2022/09/13 03:30:13;;;;;;;7.05;4.75;;;10.30;99.90;;;;;;5227713;28;20240;-74
2022/09/13 03:32:52;;;;;;;6.20;4.65;;;10.30;99.90;;;;;;5221658;28;20171;-74
2022/09/13 03:36:09;;;;;;;4.70;4.15;;;10.30;99.90;;;;;;5207224;28;20258;-74
2022/09/13 03:39:23;;;;;;;5.32;4.20;;;10.10;99.90;;;;;;5230693;28;20041;-73
2022/09/13 03:42:05;;;;;;;6.00;4.03;;;10.10;99.90;;;;;;5232320;28;20322;-72
2022/09/13 03:44:43;;;;;;;5.80;3.83;;;10.00;99.90;;;;;;5220561;28;20599;-72
2022/09/13 03:47:16;;;;;;;6.75;4.07;;;9.90;99.90;;;;;;5222953;28;20040;-72
2022/09/13 03:49:51;;;;;;;4.50;3.67;;;9.90;99.90;;;;;;5222175;28;20094;-72
2022/09/13 03:52:26;;;;;;;5.45;4.35;;;9.80;99.90;;;;;;5222185;28;20040;-72
2022/09/13 03:55:01;;;;;;;5.35;4.03;;;9.70;99.90;;;;;;5239240;28;20029;-72
2022/09/13 03:57:34;;;;;;;5.85;4.25;;;9.70;99.90;;;;;;5217018;28;20157;-73
2022/09/13 04:00:14;;;;;;;5.75;3.72;;;9.70;99.90;;;;;;5218530;28;20030;-73
2022/09/13 04:02:46;;;;;;;4.57;4.05;;;9.70;99.90;;;;;;5233802;28;20040;-72
2022/09/13 04:05:21;;;;;;;6.28;4.20;;;9.70;99.90;;;;;;5210466;28;20056;-73
2022/09/13 04:07:55;;;;;;;5.25;4.55;;;9.70;99.90;;;;;;5204243;28;20049;-72
2022/09/13 04:10:31;;;;;;;4.80;3.97;;;9.70;99.90;;;;;;5199332;28;20033;-72
2022/09/13 04:13:03;;;;;;;8.88;4.40;;;9.70;99.90;;;;;;5202074;28;20028;-72
2022/09/13 04:15:37;;;;;;;5.53;4.40;;;9.70;99.90;;;;;;5218404;28;20499;-72
2022/09/13 04:18:10;;;;;;;5.38;4.22;;;9.70;99.90;;;;;;5218267;28;20037;-72
2022/09/13 04:20:54;;;;;;;7.53;4.07;;;9.70;99.90;;;;;;5218538;28;20052;-73
2022/09/13 04:23:28;;;;;;;4.63;4.13;;;9.60;99.90;;;;;;5219263;28;20111;-72
2022/09/13 04:26:05;;;;;;;6.50;4.93;;;9.60;99.90;;;;;;5211431;28;20041;-72
2022/09/13 04:28:39;;;;;;;7.00;5.57;;;9.60;99.90;;;;;;5190992;28;20037;-72
2022/09/13 04:31:16;;;;;;;5.53;4.80;;;9.60;99.90;;;;;;5215522;28;20420;-72
2022/09/13 04:33:51;;;;;;;6.38;4.43;;;9.60;99.90;;;;;;5219032;28;20037;-72
2022/09/13 04:36:25;;;;;;;6.60;5.32;;;9.60;99.90;;;;;;5214832;28;20035;-72
2022/09/13 04:39:02;;;;;;;9.68;4.88;;;9.60;99.90;;;;;;5217987;28;20029;-72
2022/09/13 04:41:36;;;;;;;6.78;4.97;;;9.60;99.90;;;;;;5215124;28;20033;-72
2022/09/13 04:44:07;;;;;;;6.45;5.05;;;9.60;99.90;;;;;;5213561;28;20037;-74
2022/09/13 04:46:40;;;;;;;7.70;5.18;;;9.60;99.90;;;;;;5217137;28;20033;-72
2022/09/13 04:49:17;;;;;;;5.35;4.43;;;9.60;99.90;;;;;;5202263;28;20036;-72
2022/09/13 04:51:51;;;;;;;8.25;5.63;;;9.60;99.90;;;;;;5219369;28;20035;-72
2022/09/13 04:54:28;;;;;;;10.45;5.97;;;9.70;99.90;;;;;;5218915;28;20020;-73
2022/09/13 04:56:59;;;;;;;9.45;5.63;;;9.70;99.90;;;;;;5217108;28;20039;-72
2022/09/13 04:59:35;;;;;;;7.03;5.85;;;9.80;99.90;;;;;;5218349;28;20035;-72
2022/09/13 05:02:09;;;;;;;11.63;6.85;;;10.00;99.90;;;;;;5203800;28;20035;-72
2022/09/13 05:04:45;;;;;;;8.60;5.85;;;10.10;99.90;;;;;;5219435;28;21085;-72
2022/09/13 05:07:22;;;;;;;8.27;5.72;;;10.30;99.90;;;;;;5213499;28;20037;-72
2022/09/13 05:09:56;;;;;;;7.93;5.72;;;10.50;99.90;;;;;;5214528;28;20952;-73
2022/09/13 05:12:27;;;;;;;8.23;6.22;;;10.60;99.90;;;;;;5218151;28;20062;-73
2022/09/13 05:14:59;;;;;;;8.48;6.03;;;10.70;99.90;;;;;;5209824;28;20332;-72
2022/09/13 05:17:30;;;;;;;11.60;5.72;;;10.90;99.90;;;;;;5214383;28;20318;-73
2022/09/13 05:20:05;;;;;;;9.77;5.22;;;10.90;99.90;;;;;;5213369;28;20373;-72
2022/09/13 05:22:36;;;;;;;10.98;5.80;;;11.10;99.90;;;;;;5199468;28;20055;-74
2022/09/13 05:25:12;;;;;;;7.65;5.00;;;11.30;99.90;;;;;;5220339;28;20049;-74
2022/09/13 05:27:47;;;;;;;5.22;4.40;;;11.40;99.90;;;;;;5217659;28;20043;-74
2022/09/13 05:30:23;;;;;;;6.70;4.55;;;11.60;99.90;;;;;;5220854;28;20044;-74
2022/09/13 05:33:00;;;;;;;6.88;5.10;;;11.80;99.90;;;;;;5218470;28;20029;-74
2022/09/13 05:35:31;;;;;;;6.78;4.35;;;12.00;99.90;;;;;;5200296;28;20051;-74
2022/09/13 05:38:07;;;;;;;7.32;4.50;;;12.20;99.90;;;;;;5219899;28;20040;-73
2022/09/13 05:40:41;;;;;;;5.55;4.57;;;12.40;99.90;;;;;;5223165;28;20536;-73
2022/09/13 05:43:16;;;;;;;5.95;4.25;;;12.50;99.90;;;;;;5220791;28;20047;-74
2022/09/13 05:45:57;;;;;;;4.78;4.22;;;12.70;99.90;;;;;;5201178;28;20051;-74
2022/09/13 05:48:33;;;;;;;5.18;4.35;;;12.90;99.90;;;;;;5213263;28;20033;-74
2022/09/13 05:51:18;;;;;;;7.90;4.40;;;13.00;99.90;;;;;;5214339;28;20028;-74
2022/09/13 05:53:53;;;;;;;;;;;13.30;99.90;;;;;;5217787;28;20035;-74
2022/09/13 05:56:26;;;;;;;;;;;13.50;99.90;;;;;;5222538;28;19924;-73
2022/09/13 05:59:03;;;;;;;4.97;3.95;;;13.60;99.90;;;;;;5229426;28;20555;-73
2022/09/13 06:01:35;;;;;;;5.47;4.40;;;13.80;99.90;;;;;;5242361;28;20041;-73
2022/09/13 06:04:07;;;;;;;5.30;4.45;;;14.10;99.90;;;;;;5214578;28;20039;-73
2022/09/13 06:06:40;;;;;;;5.35;4.20;;;14.50;99.90;;;;;;5215235;28;20057;-73
2022/09/13 06:09:18;;;;;;;4.90;4.00;;;15.20;99.90;;;;;;5199681;28;20045;-74
2022/09/13 06:11:52;;;;;;;4.57;3.83;;;15.60;99.90;;;;;;5233815;28;20040;-75
2022/09/13 06:14:24;;;;;;;5.65;3.85;;;15.90;99.90;;;;;;5217865;28;20037;-72
2022/09/13 06:17:02;;;;;;;4.60;3.67;;;16.10;99.90;;;;;;5221869;28;20047;-73
2022/09/13 06:19:34;;;;;;;4.85;3.55;;;16.10;99.90;;;;;;5215072;28;20037;-74
2022/09/13 06:22:11;;;;;;;5.07;3.63;;;16.40;99.90;;;;;;5223476;28;20043;-75
2022/09/13 06:24:42;;;;;;;4.03;3.60;;;16.90;99.90;;;;;;5221226;28;20035;-73
2022/09/13 06:27:18;;;;;;;4.40;3.70;;;17.20;99.90;;;;;;5219118;28;20028;-74
2022/09/13 06:29:55;;;;;;;6.22;3.30;;;17.50;99.90;;;;;;5235804;28;20108;-73
2022/09/13 06:32:34;;;;;;;5.45;3.90;;;17.60;99.90;;;;;;5232843;28;20045;-74
2022/09/13 06:35:06;;;;;;;4.13;3.50;;;17.80;99.90;;;;;;5210952;28;20035;-74
2022/09/13 06:37:43;;;;;;;4.85;3.50;;;18.00;99.90;;;;;;5206521;28;20045;-73
2022/09/13 06:40:15;;;;;;;3.55;3.15;;;18.20;99.90;;;;;;5216081;28;20035;-73
2022/09/13 06:42:49;;;;;;;5.30;4.25;;;18.30;99.90;;;;;;5232365;28;20040;-73
2022/09/13 06:45:23;;;;;;;3.85;3.45;;;18.30;99.90;;;;;;5215801;28;20447;-73
2022/09/13 06:47:54;;;;;;;4.55;3.55;;;18.40;99.90;;;;;;5215216;28;20083;-74
2022/09/13 06:50:26;;;;;;;3.63;3.33;;;18.60;99.90;;;;;;5231054;28;20040;-74
2022/09/13 06:52:58;;;;;;;3.58;3.28;;;18.60;99.90;;;;;;5214595;28;20044;-74
2022/09/13 06:55:32;;;;;;;3.78;3.38;;;18.80;99.90;;;;;;5212145;28;20033;-74
2022/09/13 06:58:03;;;;;;;5.80;3.90;;;19.00;99.90;;;;;;5215317;28;20608;-74
2022/09/13 07:00:35;;;;;;;3.63;3.30;;;19.20;99.90;;;;;;5215883;28;20041;-74
2022/09/13 07:03:06;;;;;;;3.80;3.22;;;19.30;99.90;;;;;;5205041;28;20501;-74
2022/09/13 07:05:38;;;;;;;8.25;3.58;;;19.40;99.90;;;;;;5179699;28;20060;-73
2022/09/13 07:08:16;;;;;;;3.50;3.20;;;19.40;99.90;;;;;;5209149;28;20052;-73
2022/09/13 07:10:52;;;;;;;5.93;3.60;;;19.10;99.90;;;;;;5203475;28;20041;-73
2022/09/13 07:13:26;;;;;;;4.25;3.42;;;19.20;99.90;;;;;;5194414;28;20052;-73
2022/09/13 07:16:02;;;;;;;5.88;3.58;;;19.40;99.90;;;;;;5211227;28;20029;-73
2022/09/13 07:18:34;;;;;;;4.03;3.63;;;19.30;99.90;;;;;;5200699;28;20032;-74
2022/09/13 07:21:10;;;;;;;5.43;3.70;;;19.40;99.90;;;;;;5216242;28;20029;-73
2022/09/13 07:23:43;;;;;;;4.15;3.75;;;19.30;99.90;;;;;;5212691;28;20028;-73
2022/09/13 07:26:15;;;;;;;6.80;4.32;;;19.60;99.90;;;;;;5215676;28;20029;-74
2022/09/13 07:28:53;;;;;;;4.40;3.47;;;19.70;99.90;;;;;;5215985;28;20382;-74
2022/09/13 07:31:37;;;;;;;9.60;3.45;;;19.90;99.90;;;;;;5202174;28;20419;-74
2022/09/13 07:34:15;;;;;;;4.80;3.30;;;20.10;99.90;;;;;;5210444;28;20044;-74
2022/09/13 07:36:49;;;;;;;4.90;3.58;;;20.50;99.90;;;;;;5213007;28;20049;-74
2022/09/13 07:39:21;;;;;;;7.20;3.97;;;20.50;99.90;;;;;;5199547;28;20035;-74
2022/09/13 07:41:54;;;;;;;4.88;3.40;;;19.90;99.90;;;;;;5231720;28;20033;-72
2022/09/13 07:44:31;;;;;;;3.65;3.08;;;19.60;99.90;;;;;;5185910;28;20044;-74
2022/09/13 07:47:03;;;;;;;5.28;3.60;;;19.60;99.90;;;;;;5216548;28;20409;-72
2022/09/13 07:49:38;;;;;;;7.22;3.25;;;19.70;99.90;;;;;;5221641;28;20049;-73
2022/09/13 07:52:11;;;;;;;4.95;3.60;;;19.90;99.90;;;;;;5221228;28;20033;-73
2022/09/13 07:54:47;;;;;;;4.00;3.60;;;20.10;99.90;;;;;;5218763;28;20314;-73
2022/09/13 07:57:18;;;;;;;5.90;3.55;;;20.20;99.90;;;;;;5218055;28;20507;-73
2022/09/13 07:59:52;;;;;;;5.25;3.42;;;20.60;99.90;;;;;;5220008;28;20043;-72
2022/09/13 08:02:27;;;;;;;8.55;4.05;;;21.20;99.90;;;;;;5208693;28;20033;-73
2022/09/13 08:04:58;;;;;;;;;;;21.10;99.90;;;;;;5211799;28;20062;-73
2022/09/13 08:07:31;;;;;;;4.28;3.55;;;21.20;99.90;;;;;;5202751;28;20117;-73
2022/09/13 08:10:08;;;;;;;7.03;3.88;;;21.50;99.90;;;;;;5239028;28;20044;-72
2022/09/13 08:12:44;;;;;;;4.88;3.60;;;21.80;99.90;;;;;;5221388;28;20139;-73
2022/09/13 08:15:18;;;;;;;4.25;3.35;;;21.90;99.90;;;;;;5219022;28;20044;-73
2022/09/13 08:17:53;;;;;;;4.32;3.10;;;22.20;99.90;;;;;;5201842;28;20047;-73
2022/09/13 08:20:26;;;;;;;;;;;22.30;99.90;;;;;;5192842;28;20043;-74
2022/09/13 08:22:57;;;;;;;8.65;2.92;;;22.60;99.90;;;;;;5242272;28;19916;-72
2022/09/13 08:25:35;;;;;;;3.95;3.50;;;22.60;99.90;;;;;;5240657;28;20028;-74
2022/09/13 08:28:20;;;;;;;4.28;2.85;;;22.90;99.90;;;;;;5242932;28;20449;-74
2022/09/13 08:30:51;;;;;;;6.47;3.45;;;23.20;99.90;;;;;;5203096;28;20042;-73
2022/09/13 08:33:25;;;;;;;6.43;3.10;;;22.80;99.90;;;;;;5235972;28;20038;-73
2022/09/13 08:35:57;;;;;;;4.93;3.33;;;22.70;99.90;;;;;;5216514;28;20037;-73
2022/09/13 08:38:29;;;;;;;3.70;3.30;;;22.60;99.90;;;;;;5200739;28;20029;-74
2022/09/13 08:41:11;;;;;;;4.07;3.15;;;22.60;99.90;;;;;;5172278;28;20457;-74
2022/09/13 08:44:34;;;;;;;4.22;3.00;;;22.70;99.90;;;;;;5200910;28;20036;-74
2022/09/13 08:47:38;;;;;;;4.20;3.38;;;23.00;99.90;;;;;;5216127;28;20055;-73
2022/09/13 08:50:25;;;;;;;3.38;3.05;;;22.60;99.90;;;;;;5224005;28;20043;-74
2022/09/13 08:53:26;;;;;;;4.20;3.28;;;22.90;99.90;;;;;;5223705;28;20040;-73
2022/09/13 08:56:22;;;;;;;4.50;2.78;;;23.10;99.90;;;;;;5237698;28;20040;-74
2022/09/13 08:59:53;;;;;;;3.65;3.13;;;23.70;99.90;;;;;;5219604;28;20474;-74
2022/09/13 09:03:07;;;;;;;4.68;3.42;;;24.10;99.90;;;;;;5219880;28;20513;-72
2022/09/13 09:05:50;;;;;;;3.97;3.10;;;24.20;99.90;;;;;;5209592;28;20046;-74
2022/09/13 09:08:37;;;;;;;4.18;2.97;;;23.80;99.90;;;;;;5179198;28;20369;-73
2022/09/13 09:11:38;;;;;;;3.88;2.60;;;24.10;99.90;;;;;;5195708;28;20045;-72
2022/09/13 09:14:32;;;;;;;6.15;2.80;;;24.60;99.90;;;;;;5190244;28;20045;-72
2022/09/13 09:17:16;;;;;;;7.75;3.03;;;25.20;99.90;;;;;;5197769;28;20044;-72
2022/09/13 09:20:04;;;;;;;3.42;3.03;;;25.30;99.90;;;;;;5210753;28;20048;-72
2022/09/13 09:22:38;;;;;;;4.53;3.00;;;25.40;99.90;;;;;;5196035;28;20033;-72
2022/09/13 09:25:13;;;;;;;3.08;2.67;;;25.60;99.90;;;;;;5209936;28;20538;-73
2022/09/13 09:27:47;;;;;;;4.25;3.10;;;25.70;99.90;;;;;;5199895;28;20035;-72
2022/09/13 09:30:19;;;;;;;4.05;2.97;;;25.80;99.90;;;;;;5215927;28;20075;-74
2022/09/13 09:33:21;;;;;;;4.35;3.30;;;25.80;99.90;;;;;;5180225;28;20037;-73
2022/09/13 09:36:16;;;;;;;2.85;2.55;;;25.70;99.90;;;;;;5188906;28;20068;-74
2022/09/13 09:38:52;;;;;;;4.72;3.05;;;25.80;99.90;;;;;;5211914;28;20025;-74
2022/09/13 09:41:31;;;;;;;4.18;2.70;;;26.00;99.90;;;;;;5182109;28;20029;-74
2022/09/13 09:44:32;;;;;;;4.95;3.33;;;26.20;99.90;;;;;;5182239;28;20043;-73
2022/09/13 09:47:24;;;;;;;5.05;3.88;;;25.40;99.90;;;;;;5196218;28;20043;-72
2022/09/13 09:50:17;;;;;;;3.17;2.88;;;25.30;99.90;;;;;;5189627;28;20064;-72
2022/09/13 09:53:17;;;;;;;5.05;2.80;;;25.80;99.90;;;;;;5179005;28;20215;-72
2022/09/13 09:55:59;;;;;;;6.22;2.90;;;26.40;99.90;;;;;;5178181;28;20515;-73
2022/09/13 09:58:42;;;;;;;2.90;2.50;;;26.80;99.90;;;;;;5177214;28;20042;-72
2022/09/13 10:01:36;;;;;;;3.28;2.97;;;27.30;99.90;;;;;;5198452;28;20249;-72
2022/09/13 10:04:19;;;;;;;3.50;2.13;;;27.40;99.90;;;;;;5181175;28;20045;-72
2022/09/13 10:07:18;;;;;;;4.20;2.83;;;27.10;99.90;;;;;;5193604;28;20055;-72
2022/09/13 10:10:35;;;;;;;2.78;2.58;;;27.20;99.90;;;;;;5236981;28;20139;-73
2022/09/13 10:13:22;;;;;;;2.72;2.42;;;26.60;99.90;;;;;;5201856;28;20028;-73
2022/09/13 10:16:06;;;;;;;4.45;2.70;;;26.60;99.90;;;;;;5209696;28;20024;-73
2022/09/13 10:18:43;;;;;;;2.72;2.53;;;27.30;99.90;;;;;;5251674;28;20036;-72
2022/09/13 10:21:17;;;;;;;3.13;2.60;;;27.30;99.90;;;;;;5236550;28;20028;-73
2022/09/13 10:23:54;;;;;;;2.88;2.40;;;28.10;99.90;;;;;;5236145;28;20045;-75
2022/09/13 10:26:27;;;;;;;7.35;2.75;;;29.10;99.90;;;;;;5219335;28;20040;-73
2022/09/13 10:29:06;;;;;;;2.80;2.60;;;29.90;99.90;;;;;;5202998;28;20044;-73
2022/09/13 10:31:46;;;;;;;2.72;2.22;;;27.30;99.90;;;;;;5216217;28;20028;-73
2022/09/13 10:34:40;;;;;;;3.30;2.47;;;28.70;99.90;;;;;;5202857;28;20024;-73
2022/09/13 10:37:21;;;;;;;3.95;2.50;;;29.90;99.90;;;;;;5204370;28;20523;-73
2022/09/13 10:40:08;;;;;;;2.88;2.50;;;31.30;99.90;;;;;;5209499;28;20029;-73
2022/09/13 10:42:42;;;;;;;2.72;2.40;;;32.20;99.90;;;;;;5195978;28;20057;-74
2022/09/13 10:45:24;;;;;;;3.95;2.50;;;33.10;99.90;;;;;;5222757;28;20036;-73
2022/09/13 10:48:09;;;;;;;3.35;2.15;;;32.40;99.90;;;;;;5216405;28;20036;-73
2022/09/13 10:51:18;;;;;;;3.55;2.47;;;33.00;99.90;;;;;;5223312;28;20047;-73
2022/09/13 10:54:16;;;;;;;2.95;2.40;;;33.50;99.90;;;;;;5219536;28;20443;-74
2022/09/13 10:56:52;;;;;;;3.03;2.28;;;32.60;99.90;;;;;;5218961;28;20055;-74
2022/09/13 10:59:28;;;;;;;4.63;2.45;;;32.70;99.90;;;;;;5236383;28;20032;-74
2022/09/13 11:02:40;;;;;;;2.92;2.10;;;32.40;99.90;;;;;;5227412;28;20233;-74
2022/09/13 11:05:31;;;;;;;4.13;2.88;;;32.90;99.90;;;;;;5212534;28;20061;-74
2022/09/13 11:08:42;;;;;;;3.50;2.45;;;34.20;99.90;;;;;;5195791;28;20041;-73
2022/09/13 11:11:42;;;;;;;3.67;2.38;;;34.60;99.90;;;;;;5216686;28;20534;-73
2022/09/13 11:14:28;;;;;;;2.25;2.05;;;34.50;99.90;;;;;;5200818;28;20366;-74
2022/09/13 11:18:12;;;;;;;2.58;2.03;;;34.80;99.90;;;;;;5218242;28;20123;-73
2022/09/13 11:21:07;;;;;;;3.05;2.50;;;34.40;99.90;;;;;;5135834;28;20031;-75
2022/09/13 11:23:47;;;;;;;2.88;2.58;;;32.70;99.90;;;;;;5120365;28;20268;-73
2022/09/13 11:27:09;;;;;;;3.03;2.25;;;33.00;99.90;;;;;;5136058;28;20050;-73
2022/09/13 11:29:57;;;;;;;3.10;2.17;;;33.50;99.90;;;;;;5128147;28;20047;-73
2022/09/13 11:33:19;;;;;;;3.22;2.40;;;34.00;99.90;;;;;;5138934;28;20209;-76
2022/09/13 11:35:56;;;;;;;2.60;2.40;;;34.10;99.90;;;;;;5123223;28;20057;-73
2022/09/13 11:38:52;;;;;;;2.78;2.30;;;33.90;99.90;;;;;;5138721;28;20047;-73
2022/09/13 11:41:40;;;;;;;2.83;2.15;;;33.40;99.90;;;;;;5143442;28;20034;-73
2022/09/13 11:45:06;;;;;;;2.85;2.35;;;34.10;99.90;;;;;;5140098;28;20053;-74
2022/09/13 11:48:16;;;;;;;2.67;2.45;;;35.30;99.90;;;;;;5135191;28;20058;-74
2022/09/13 11:51:40;;;;;;;3.85;2.08;;;35.70;99.90;;;;;;5137476;28;20050;-74
2022/09/13 11:54:17;;;;;;;2.60;2.35;;;35.20;99.90;;;;;;5150646;28;20548;-74
2022/09/13 11:56:58;;;;;;;2.47;2.28;;;35.70;99.90;;;;;;5218786;28;20310;-73
2022/09/13 11:59:56;;;;;;;4.95;2.20;;;36.10;99.90;;;;;;5207451;28;20044;-73
2022/09/13 12:03:06;;;;;;;4.60;2.53;;;31.80;99.90;;;;;;5187625;28;20041;-75
2022/09/13 12:05:51;;;;;;;2.10;1.90;;;32.70;99.90;;;;;;5220808;28;20546;-73
2022/09/13 12:08:34;;;;;;;3.00;2.42;;;34.10;99.90;;;;;;5221723;28;20044;-74
2022/09/13 12:11:28;;;;;;;2.92;2.38;;;35.50;99.90;;;;;;5228184;28;20033;-74
2022/09/13 12:14:06;;;;;;;2.80;2.45;;;35.00;99.90;;;;;;5205425;28;20684;-74
2022/09/13 12:16:44;;;;;;;2.50;2.15;;;35.90;99.90;;;;;;5213179;28;20044;-75
2022/09/13 12:19:44;;;;;;;2.05;1.90;;;34.60;99.90;;;;;;5241811;28;20524;-75
2022/09/13 12:22:17;;;;;;;2.20;2.00;;;33.20;99.90;;;;;;5223280;28;20051;-74
2022/09/13 12:24:57;;;;;;;2.50;2.30;;;33.50;99.90;;;;;;5239723;28;20039;-75
2022/09/13 12:28:09;;;;;;;2.83;2.28;;;33.60;99.90;;;;;;5221788;28;20471;-75
2022/09/13 12:30:57;;;;;;;2.35;1.85;;;33.80;99.90;;;;;;5156582;28;20041;-75
2022/09/13 12:33:32;;;;;;;3.22;2.30;;;32.70;99.90;;;;;;5152487;28;20050;-73
2022/09/13 12:36:27;;;;;;;2.60;2.40;;;33.20;99.90;;;;;;5174924;28;20602;-73
2022/09/13 12:39:27;;;;;;;2.08;1.88;;;32.80;99.90;;;;;;5162833;28;20042;-75
2022/09/13 12:42:16;;;;;;;2.65;1.98;;;32.10;99.90;;;;;;5179738;28;20043;-75
2022/09/13 12:45:38;;;;;;;2.42;2.22;;;32.60;99.90;;;;;;5181704;28;20034;-76
2022/09/13 12:48:35;;;;;;;3.50;2.08;;;32.90;99.90;;;;;;5136857;28;20496;-75
2022/09/13 12:51:13;;;;;;;2.95;2.10;;;33.40;99.90;;;;;;5135990;28;20035;-75
2022/09/13 12:54:17;;;;;;;2.78;2.28;;;33.80;99.90;;;;;;5127735;28;20039;-75
2022/09/13 12:57:36;;;;;;;2.43;2.23;;;32.20;99.90;;;;;;5120605;28;20520;-74
2022/09/13 13:00:33;;;;;;;2.30;2.03;;;32.40;99.90;;;;;;5130068;28;20049;-75
2022/09/13 13:03:13;;;;;;;2.47;2.08;;;32.80;99.90;;;;;;5117320;28;20119;-74
2022/09/13 13:05:51;;;;;;;2.63;2.40;;;31.70;99.90;;;;;;5123941;28;20082;-74
2022/09/13 13:08:28;;;;;;;2.58;2.38;;;31.20;99.90;;;;;;5139842;28;20042;-76
2022/09/13 13:11:12;;;;;;;2.60;1.75;;;30.50;99.90;;;;;;5167574;28;20038;-74
2022/09/13 13:14:08;;;;;;;3.33;2.00;;;30.30;99.90;;;;;;5167962;28;20030;-73
2022/09/13 13:16:39;;;;;;;2.15;1.70;;;31.30;99.90;;;;;;5122153;28;20054;-73
2022/09/13 13:19:36;;;;;;;2.35;2.15;;;33.20;99.90;;;;;;5152591;28;20057;-75
2022/09/13 13:22:41;;;;;;;2.08;1.88;;;34.60;99.90;;;;;;5199579;28;20075;-75
2022/09/13 13:25:38;;;;;;;3.03;2.22;;;36.60;99.90;;;;;;5234856;28;20032;-75
2022/09/13 13:29:09;;;;;;;3.22;2.50;;;35.70;99.90;;;;;;5221168;28;20039;-75
2022/09/13 13:32:07;;;;;;;3.20;2.20;;;35.50;99.90;;;;;;5152743;28;20034;-74
2022/09/13 13:34:44;;;;;;;2.22;2.03;;;35.50;99.90;;;;;;5152666;28;20074;-74
2022/09/13 13:37:18;;;;;;;2.75;2.03;;;35.40;99.90;;;;;;5190756;28;20044;-76
2022/09/13 13:40:28;;;;;;;2.42;2.22;;;36.90;99.90;;;;;;5239529;28;20473;-75
2022/09/13 13:43:41;;;;;;;2.10;1.92;;;37.30;99.90;;;;;;5220244;28;20047;-75
2022/09/13 13:46:14;;;;;;;2.00;1.90;;;36.00;99.30;;;;;;5117106;28;20162;-74
2022/09/13 13:48:47;;;;;;;2.70;2.00;;;35.50;99.50;;;;;;5132725;28;20057;-74
2022/09/13 13:51:26;;;;;;;2.40;2.17;;;33.40;99.90;;;;;;5117395;28;20551;-74
2022/09/13 13:54:29;;;;;;;2.22;2.03;;;34.70;99.90;;;;;;5116790;28;20069;-74
2022/09/13 13:57:03;;;;;;;2.30;2.10;;;35.20;99.50;;;;;;5123529;28;20030;-74
2022/09/13 13:59:38;;;;;;;2.20;2.00;;;34.70;99.90;;;;;;5122455;28;20051;-74
2022/09/13 14:02:15;;;;;;;1.88;1.77;;;34.20;99.90;;;;;;5135717;28;20161;-74
2022/09/13 14:05:02;;;;;;;3.00;2.10;;;34.90;99.90;;;;;;5107225;28;20047;-74
2022/09/13 14:08:04;;;;;;;2.20;2.00;;;34.90;99.80;;;;;;5128235;28;20089;-74
2022/09/13 14:11:36;;;;;;;2.30;2.00;;;34.20;99.50;;;;;;5116622;28;20038;-74
2022/09/13 14:14:36;;;;;;;2.05;1.92;;;32.60;99.90;;;;;;5131170;28;20486;-74
2022/09/13 14:17:45;;;;;;;2.58;2.38;;;32.80;99.90;;;;;;5131835;28;20133;-73